sensor_id;sensor_type;location;lat;lon;timestamp;pressure;altitude;pressure_sealevel;temperature;humidity
30618;BME280;17384;51.214;9.202;2023-04-08T00:01:04;99156.25;;;0.16;89.46
30618;BME280;17384;51.214;9.202;2023-04-08T00:03:30;99149.06;;;0.07;89.69
30618;BME280;17384;51.214;9.202;2023-04-08T00:05:56;99156.38;;;0.05;89.71
30618;BME280;17384;51.214;9.202;2023-04-08T00:08:22;99153.84;;;0.03;89.59
30618;BME280;17384;51.214;9.202;2023-04-08T00:10:47;99151.47;;;0.00;89.37
30618;BME280;17384;51.214;9.202;2023-04-08T00:13:12;99161.84;;;-0.16;89.43
30618;BME280;17384;51.214;9.202;2023-04-08T00:15:39;99146.53;;;-0.14;89.91
30618;BME280;17384;51.214;9.202;2023-04-08T00:18:06;99153.13;;;-0.18;90.08
30618;BME280;17384;51.214;9.202;2023-04-08T00:20:31;99155.94;;;-0.20;89.71
30618;BME280;17384;51.214;9.202;2023-04-08T00:22:57;99155.66;;;-0.36;89.93
30618;BME280;17384;51.214;9.202;2023-04-08T00:25:22;99164.34;;;-0.34;90.16
30618;BME280;17384;51.214;9.202;2023-04-08T00:27:48;99164.75;;;-0.39;90.20
30618;BME280;17384;51.214;9.202;2023-04-08T00:30:13;99150.19;;;-0.35;90.23
30618;BME280;17384;51.214;9.202;2023-04-08T00:32:39;99155.50;;;-0.35;90.07
30618;BME280;17384;51.214;9.202;2023-04-08T00:35:05;99161.53;;;-0.32;90.58
30618;BME280;17384;51.214;9.202;2023-04-08T00:37:31;99162.38;;;-0.32;90.26
30618;BME280;17384;51.214;9.202;2023-04-08T00:39:57;99155.66;;;-0.36;90.61
30618;BME280;17384;51.214;9.202;2023-04-08T00:42:22;99161.69;;;-0.34;90.31
30618;BME280;17384;51.214;9.202;2023-04-08T00:44:48;99154.19;;;-0.50;90.57
30618;BME280;17384;51.214;9.202;2023-04-08T00:47:14;99159.25;;;-0.47;90.42
30618;BME280;17384;51.214;9.202;2023-04-08T00:49:40;99163.47;;;-0.44;90.27
30618;BME280;17384;51.214;9.202;2023-04-08T00:52:06;99167.56;;;-0.40;90.08
30618;BME280;17384;51.214;9.202;2023-04-08T00:54:32;99170.63;;;-0.45;90.06
30618;BME280;17384;51.214;9.202;2023-04-08T00:56:57;99176.22;;;-0.48;90.07
30618;BME280;17384;51.214;9.202;2023-04-08T00:59:28;99162.59;;;-0.64;90.35
30618;BME280;17384;51.214;9.202;2023-04-08T01:02:13;99170.94;;;-0.78;90.87
30618;BME280;17384;51.214;9.202;2023-04-08T01:04:52;99174.31;;;-0.76;91.18
30618;BME280;17384;51.214;9.202;2023-04-08T01:07:26;99155.72;;;-0.66;91.32
30618;BME280;17384;51.214;9.202;2023-04-08T01:10:00;99170.41;;;-0.72;91.18
30618;BME280;17384;51.214;9.202;2023-04-08T01:12:29;99158.06;;;-0.73;91.24
30618;BME280;17384;51.214;9.202;2023-04-08T01:15:14;99151.22;;;-0.66;90.89
30618;BME280;17384;51.214;9.202;2023-04-08T01:17:40;99155.56;;;-0.65;90.88
30618;BME280;17384;51.214;9.202;2023-04-08T01:20:08;99148.56;;;-0.66;90.64
30618;BME280;17384;51.214;9.202;2023-04-08T01:22:42;99161.19;;;-0.68;91.20
30618;BME280;17384;51.214;9.202;2023-04-08T01:25:20;99158.38;;;-0.66;90.87
30618;BME280;17384;51.214;9.202;2023-04-08T01:27:47;99150.50;;;-0.68;91.00
30618;BME280;17384;51.214;9.202;2023-04-08T01:30:16;99153.59;;;-0.73;91.52
30618;BME280;17384;51.214;9.202;2023-04-08T01:32:43;99171.78;;;-0.78;91.73
30618;BME280;17384;51.214;9.202;2023-04-08T01:35:09;99171.06;;;-0.80;91.78
30618;BME280;17384;51.214;9.202;2023-04-08T01:37:36;99171.38;;;-0.83;92.15
30618;BME280;17384;51.214;9.202;2023-04-08T01:40:02;99169.00;;;-0.76;92.07
30618;BME280;17384;51.214;9.202;2023-04-08T01:42:29;99168.72;;;-0.73;92.22
30618;BME280;17384;51.214;9.202;2023-04-08T01:44:57;99177.41;;;-0.71;92.15
30618;BME280;17384;51.214;9.202;2023-04-08T01:47:24;99167.47;;;-0.69;92.19
30618;BME280;17384;51.214;9.202;2023-04-08T01:49:51;99165.38;;;-0.65;92.18
30618;BME280;17384;51.214;9.202;2023-04-08T01:52:19;99162.06;;;-0.58;92.26
30618;BME280;17384;51.214;9.202;2023-04-08T01:54:46;99166.09;;;-0.54;92.23
30618;BME280;17384;51.214;9.202;2023-04-08T01:57:17;99161.22;;;-0.49;92.22
30618;BME280;17384;51.214;9.202;2023-04-08T01:59:47;99166.13;;;-0.44;92.14
30618;BME280;17384;51.214;9.202;2023-04-08T02:02:18;99179.50;;;-0.35;92.11
30618;BME280;17384;51.214;9.202;2023-04-08T02:04:45;99164.91;;;-0.30;92.66
30618;BME280;17384;51.214;9.202;2023-04-08T02:07:11;99172.06;;;-0.21;92.25
30618;BME280;17384;51.214;9.202;2023-04-08T02:09:36;99166.88;;;-0.13;91.53
30618;BME280;17384;51.214;9.202;2023-04-08T02:12:02;99176.16;;;-0.08;90.57
30618;BME280;17384;51.214;9.202;2023-04-08T02:14:28;99176.44;;;-0.11;90.41
30618;BME280;17384;51.214;9.202;2023-04-08T02:17:01;99175.59;;;-0.11;90.43
30618;BME280;17384;51.214;9.202;2023-04-08T02:19:35;99157.63;;;-0.09;90.24
30618;BME280;17384;51.214;9.202;2023-04-08T02:22:08;99176.59;;;-0.03;90.73
30618;BME280;17384;51.214;9.202;2023-04-08T02:24:37;99174.19;;;0.04;90.84
30618;BME280;17384;51.214;9.202;2023-04-08T02:27:04;99170.41;;;0.16;91.66
30618;BME280;17384;51.214;9.202;2023-04-08T02:29:31;99162.97;;;0.20;91.43
30618;BME280;17384;51.214;9.202;2023-04-08T02:31:58;99167.19;;;0.22;91.13
30618;BME280;17384;51.214;9.202;2023-04-08T02:34:25;99170.25;;;0.27;90.97
30618;BME280;17384;51.214;9.202;2023-04-08T02:36:51;99175.31;;;0.30;90.92
30618;BME280;17384;51.214;9.202;2023-04-08T02:39:17;99175.59;;;0.37;90.75
30618;BME280;17384;51.214;9.202;2023-04-08T02:41:43;99169.41;;;0.46;90.48
30618;BME280;17384;51.214;9.202;2023-04-08T02:44:09;99170.53;;;0.44;90.12
30618;BME280;17384;51.214;9.202;2023-04-08T02:46:34;99168.16;;;0.41;90.22
30618;BME280;17384;51.214;9.202;2023-04-08T02:49:00;99179.09;;;0.47;90.47
30618;BME280;17384;51.214;9.202;2023-04-08T02:51:25;99168.81;;;0.62;90.45
30618;BME280;17384;51.214;9.202;2023-04-08T02:53:52;99162.50;;;0.63;90.44
30618;BME280;17384;51.214;9.202;2023-04-08T02:56:17;99171.91;;;0.67;89.93
30618;BME280;17384;51.214;9.202;2023-04-08T02:58:43;99174.28;;;0.70;89.80
30618;BME280;17384;51.214;9.202;2023-04-08T03:01:08;99180.59;;;0.79;90.19
30618;BME280;17384;51.214;9.202;2023-04-08T03:03:34;99172.41;;;0.90;90.14
30618;BME280;17384;51.214;9.202;2023-04-08T03:06:00;99181.59;;;1.15;89.19
30618;BME280;17384;51.214;9.202;2023-04-08T03:08:25;99165.31;;;1.08;88.69
30618;BME280;17384;51.214;9.202;2023-04-08T03:10:51;99169.91;;;1.16;89.11
30618;BME280;17384;51.214;9.202;2023-04-08T03:13:16;99168.06;;;1.26;88.93
30618;BME280;17384;51.214;9.202;2023-04-08T03:15:42;99177.31;;;1.31;88.78
30618;BME280;17384;51.214;9.202;2023-04-08T03:18:07;99177.09;;;1.43;89.03
30618;BME280;17384;51.214;9.202;2023-04-08T03:20:33;99182.00;;;1.47;88.81
30618;BME280;17384;51.214;9.202;2023-04-08T03:22:59;99167.34;;;1.51;88.74
30618;BME280;17384;51.214;9.202;2023-04-08T03:25:24;99178.44;;;1.56;88.00
30618;BME280;17384;51.214;9.202;2023-04-08T03:27:50;99169.31;;;1.59;87.77
30618;BME280;17384;51.214;9.202;2023-04-08T03:30:16;99167.53;;;1.67;86.08
30618;BME280;17384;51.214;9.202;2023-04-08T03:32:41;99177.34;;;1.77;85.52
30618;BME280;17384;51.214;9.202;2023-04-08T03:35:07;99173.09;;;1.84;85.35
30618;BME280;17384;51.214;9.202;2023-04-08T03:37:33;99186.31;;;1.85;85.55
30618;BME280;17384;51.214;9.202;2023-04-08T03:39:58;99178.81;;;1.89;85.45
30618;BME280;17384;51.214;9.202;2023-04-08T03:42:24;99178.34;;;1.93;85.42
30618;BME280;17384;51.214;9.202;2023-04-08T03:44:49;99177.75;;;1.99;84.20
30618;BME280;17384;51.214;9.202;2023-04-08T03:47:15;99182.34;;;2.07;83.60
30618;BME280;17384;51.214;9.202;2023-04-08T03:49:40;99184.72;;;2.10;83.19
30618;BME280;17384;51.214;9.202;2023-04-08T03:52:06;99177.91;;;2.16;83.28
30618;BME280;17384;51.214;9.202;2023-04-08T03:54:31;99185.47;;;2.20;83.33
30618;BME280;17384;51.214;9.202;2023-04-08T03:56:57;99172.47;;;2.25;83.34
30618;BME280;17384;51.214;9.202;2023-04-08T03:59:22;99176.53;;;2.29;83.87
30618;BME280;17384;51.214;9.202;2023-04-08T04:01:48;99176.91;;;2.34;83.56
30618;BME280;17384;51.214;9.202;2023-04-08T04:04:15;99188.63;;;2.33;83.69
30618;BME280;17384;51.214;9.202;2023-04-08T04:06:41;99187.31;;;2.37;83.90
30618;BME280;17384;51.214;9.202;2023-04-08T04:09:06;99193.22;;;2.41;83.27
30618;BME280;17384;51.214;9.202;2023-04-08T04:11:33;99187.00;;;2.41;83.00
30618;BME280;17384;51.214;9.202;2023-04-08T04:14:00;99186.38;;;2.47;83.19
30618;BME280;17384;51.214;9.202;2023-04-08T04:16:25;99192.25;;;2.50;84.11
30618;BME280;17384;51.214;9.202;2023-04-08T04:18:51;99190.56;;;2.49;85.30
30618;BME280;17384;51.214;9.202;2023-04-08T04:21:17;99191.91;;;2.45;86.01
30618;BME280;17384;51.214;9.202;2023-04-08T04:23:43;99196.56;;;2.43;86.36
30618;BME280;17384;51.214;9.202;2023-04-08T04:26:09;99187.41;;;2.46;86.33
30618;BME280;17384;51.214;9.202;2023-04-08T04:28:35;99192.91;;;2.44;86.67
30618;BME280;17384;51.214;9.202;2023-04-08T04:31:00;99186.72;;;2.44;86.51
30618;BME280;17384;51.214;9.202;2023-04-08T04:33:26;99198.31;;;2.52;85.90
30618;BME280;17384;51.214;9.202;2023-04-08T04:35:51;99184.22;;;2.50;85.38
30618;BME280;17384;51.214;9.202;2023-04-08T04:38:17;99196.47;;;2.53;85.41
30618;BME280;17384;51.214;9.202;2023-04-08T04:40:42;99193.78;;;2.53;85.80
30618;BME280;17384;51.214;9.202;2023-04-08T04:43:08;99210.53;;;2.55;86.00
30618;BME280;17384;51.214;9.202;2023-04-08T04:45:34;99204.44;;;2.62;85.68
30618;BME280;17384;51.214;9.202;2023-04-08T04:47:59;99195.84;;;2.59;85.79
30618;BME280;17384;51.214;9.202;2023-04-08T04:50:25;99194.56;;;2.63;85.71
30618;BME280;17384;51.214;9.202;2023-04-08T04:52:51;99199.91;;;2.63;84.58
30618;BME280;17384;51.214;9.202;2023-04-08T04:55:16;99201.75;;;2.62;84.56
30618;BME280;17384;51.214;9.202;2023-04-08T04:57:42;99207.09;;;2.62;85.11
30618;BME280;17384;51.214;9.202;2023-04-08T05:00:09;99215.13;;;2.62;85.20
30618;BME280;17384;51.214;9.202;2023-04-08T05:02:34;99211.31;;;2.65;84.95
30618;BME280;17384;51.214;9.202;2023-04-08T05:05:00;99214.53;;;2.68;84.43
30618;BME280;17384;51.214;9.202;2023-04-08T05:07:25;99220.41;;;2.72;84.20
30618;BME280;17384;51.214;9.202;2023-04-08T05:09:51;99216.56;;;2.75;84.12
30618;BME280;17384;51.214;9.202;2023-04-08T05:12:16;99211.81;;;2.86;83.75
30618;BME280;17384;51.214;9.202;2023-04-08T05:14:42;99227.19;;;2.84;83.29
30618;BME280;17384;51.214;9.202;2023-04-08T05:17:07;99232.25;;;2.87;82.47
30618;BME280;17384;51.214;9.202;2023-04-08T05:19:33;99230.25;;;2.89;81.98
30618;BME280;17384;51.214;9.202;2023-04-08T05:21:58;99230.47;;;2.96;81.30
30618;BME280;17384;51.214;9.202;2023-04-08T05:24:24;99235.31;;;2.92;81.05
30618;BME280;17384;51.214;9.202;2023-04-08T05:26:49;99227.56;;;2.89;81.53
30618;BME280;17384;51.214;9.202;2023-04-08T05:29:17;99233.00;;;2.97;81.14
30618;BME280;17384;51.214;9.202;2023-04-08T05:31:43;99237.84;;;3.02;80.80
30618;BME280;17384;51.214;9.202;2023-04-08T05:34:09;99222.31;;;3.05;80.50
30618;BME280;17384;51.214;9.202;2023-04-08T05:36:35;99234.03;;;3.04;81.09
30618;BME280;17384;51.214;9.202;2023-04-08T05:39:01;99243.13;;;3.12;80.79
30618;BME280;17384;51.214;9.202;2023-04-08T05:41:26;99241.75;;;3.08;80.58
30618;BME280;17384;51.214;9.202;2023-04-08T05:43:52;99237.94;;;3.10;80.31
30618;BME280;17384;51.214;9.202;2023-04-08T05:46:17;99251.16;;;3.12;80.31
30618;BME280;17384;51.214;9.202;2023-04-08T05:48:43;99244.97;;;3.11;81.61
30618;BME280;17384;51.214;9.202;2023-04-08T05:51:15;99254.53;;;3.14;81.65
30618;BME280;17384;51.214;9.202;2023-04-08T05:53:43;99259.69;;;3.07;82.45
30618;BME280;17384;51.214;9.202;2023-04-08T05:56:09;99251.78;;;3.05;83.07
30618;BME280;17384;51.214;9.202;2023-04-08T05:58:34;99256.84;;;3.09;83.50
30618;BME280;17384;51.214;9.202;2023-04-08T06:01:00;99266.03;;;3.06;83.89
30618;BME280;17384;51.214;9.202;2023-04-08T06:03:25;99265.34;;;3.04;84.12
30618;BME280;17384;51.214;9.202;2023-04-08T06:05:50;99265.19;;;3.05;84.27
30618;BME280;17384;51.214;9.202;2023-04-08T06:08:16;99272.00;;;3.18;83.86
30618;BME280;17384;51.214;9.202;2023-04-08T06:10:51;99276.28;;;3.11;84.20
30618;BME280;17384;51.214;9.202;2023-04-08T06:13:16;99282.88;;;3.16;84.67
30618;BME280;17384;51.214;9.202;2023-04-08T06:15:42;99265.94;;;3.16;84.76
30618;BME280;17384;51.214;9.202;2023-04-08T06:18:07;99282.09;;;3.24;85.28
30618;BME280;17384;51.214;9.202;2023-04-08T06:20:34;99279.03;;;3.19;85.57
30618;BME280;17384;51.214;9.202;2023-04-08T06:23:00;99278.88;;;3.20;85.60
30618;BME280;17384;51.214;9.202;2023-04-08T06:25:26;99277.34;;;3.18;86.21
30618;BME280;17384;51.214;9.202;2023-04-08T06:27:51;99287.78;;;3.21;85.86
30618;BME280;17384;51.214;9.202;2023-04-08T06:30:17;99292.97;;;3.22;85.73
30618;BME280;17384;51.214;9.202;2023-04-08T06:32:42;99292.50;;;3.27;85.74
30618;BME280;17384;51.214;9.202;2023-04-08T06:35:11;99280.28;;;3.32;86.05
30618;BME280;17384;51.214;9.202;2023-04-08T06:37:37;99287.81;;;3.29;85.72
30618;BME280;17384;51.214;9.202;2023-04-08T06:40:04;99285.66;;;3.32;85.56
30618;BME280;17384;51.214;9.202;2023-04-08T06:42:30;99295.22;;;3.35;85.83
30618;BME280;17384;51.214;9.202;2023-04-08T06:44:55;99294.91;;;3.38;86.16
30618;BME280;17384;51.214;9.202;2023-04-08T06:47:22;99295.13;;;3.45;86.15
30618;BME280;17384;51.214;9.202;2023-04-08T06:49:48;99306.53;;;3.47;86.35
30618;BME280;17384;51.214;9.202;2023-04-08T06:52:13;99297.34;;;3.49;86.39
30618;BME280;17384;51.214;9.202;2023-04-08T06:54:39;99314.81;;;3.53;86.19
30618;BME280;17384;51.214;9.202;2023-04-08T06:57:05;99308.94;;;3.58;86.51
30618;BME280;17384;51.214;9.202;2023-04-08T06:59:31;99301.31;;;3.71;86.35
30618;BME280;17384;51.214;9.202;2023-04-08T07:01:56;99309.00;;;3.66;86.48
30618;BME280;17384;51.214;9.202;2023-04-08T07:04:22;99299.75;;;3.60;86.88
30618;BME280;17384;51.214;9.202;2023-04-08T07:06:47;99301.13;;;3.64;87.58
30618;BME280;17384;51.214;9.202;2023-04-08T07:09:13;99305.47;;;3.65;87.61
30618;BME280;17384;51.214;9.202;2023-04-08T07:11:38;99302.09;;;3.63;87.51
30618;BME280;17384;51.214;9.202;2023-04-08T07:14:04;99307.84;;;3.68;87.77
30618;BME280;17384;51.214;9.202;2023-04-08T07:16:30;99315.22;;;3.66;87.71
30618;BME280;17384;51.214;9.202;2023-04-08T07:18:55;99309.22;;;3.72;87.80
30618;BME280;17384;51.214;9.202;2023-04-08T07:21:21;99320.25;;;3.69;88.22
30618;BME280;17384;51.214;9.202;2023-04-08T07:23:46;99322.78;;;3.71;88.39
30618;BME280;17384;51.214;9.202;2023-04-08T07:26:12;99318.09;;;3.73;88.53
30618;BME280;17384;51.214;9.202;2023-04-08T07:28:37;99326.53;;;3.78;88.68
30618;BME280;17384;51.214;9.202;2023-04-08T07:31:13;99336.28;;;3.87;88.53
30618;BME280;17384;51.214;9.202;2023-04-08T07:33:40;99331.44;;;3.91;88.61
30618;BME280;17384;51.214;9.202;2023-04-08T07:36:06;99331.13;;;3.94;88.53
30618;BME280;17384;51.214;9.202;2023-04-08T07:38:33;99336.84;;;3.99;88.43
30618;BME280;17384;51.214;9.202;2023-04-08T07:40:59;99345.28;;;4.04;87.59
30618;BME280;17384;51.214;9.202;2023-04-08T07:43:25;99343.44;;;4.04;88.01
30618;BME280;17384;51.214;9.202;2023-04-08T07:45:50;99354.84;;;4.06;88.31
30618;BME280;17384;51.214;9.202;2023-04-08T07:48:16;99355.38;;;4.10;88.22
30618;BME280;17384;51.214;9.202;2023-04-08T07:50:41;99362.75;;;4.08;88.21
30618;BME280;17384;51.214;9.202;2023-04-08T07:53:07;99368.28;;;4.15;88.20
30618;BME280;17384;51.214;9.202;2023-04-08T07:55:34;99371.56;;;4.26;87.81
30618;BME280;17384;51.214;9.202;2023-04-08T07:57:59;99365.53;;;4.32;87.33
30618;BME280;17384;51.214;9.202;2023-04-08T08:00:26;99359.00;;;4.35;87.47
30618;BME280;17384;51.214;9.202;2023-04-08T08:02:51;99368.53;;;4.29;87.74
30618;BME280;17384;51.214;9.202;2023-04-08T08:05:17;99372.03;;;4.22;88.47
30618;BME280;17384;51.214;9.202;2023-04-08T08:07:42;99356.44;;;4.25;88.45
30618;BME280;17384;51.214;9.202;2023-04-08T08:10:08;99380.56;;;4.17;89.53
30618;BME280;17384;51.214;9.202;2023-04-08T08:12:34;99379.94;;;4.23;89.65
30618;BME280;17384;51.214;9.202;2023-04-08T08:15:00;99385.97;;;4.25;89.71
30618;BME280;17384;51.214;9.202;2023-04-08T08:17:25;99396.41;;;4.28;89.29
30618;BME280;17384;51.214;9.202;2023-04-08T08:19:54;99382.00;;;4.37;89.40
30618;BME280;17384;51.214;9.202;2023-04-08T08:22:19;99398.81;;;4.48;89.17
30618;BME280;17384;51.214;9.202;2023-04-08T08:24:45;99393.94;;;4.43;89.05
30618;BME280;17384;51.214;9.202;2023-04-08T08:27:11;99384.56;;;4.47;89.06
30618;BME280;17384;51.214;9.202;2023-04-08T08:29:37;99393.81;;;4.53;88.82
30618;BME280;17384;51.214;9.202;2023-04-08T08:32:03;99397.53;;;4.60;88.42
30618;BME280;17384;51.214;9.202;2023-04-08T08:34:29;99396.03;;;4.65;88.20
30618;BME280;17384;51.214;9.202;2023-04-08T08:36:55;99395.91;;;4.75;87.92
30618;BME280;17384;51.214;9.202;2023-04-08T08:39:21;99392.06;;;4.86;88.13
30618;BME280;17384;51.214;9.202;2023-04-08T08:41:47;99394.78;;;5.02;87.64
30618;BME280;17384;51.214;9.202;2023-04-08T08:44:13;99392.56;;;4.97;87.53
30618;BME280;17384;51.214;9.202;2023-04-08T08:46:43;99397.16;;;5.21;86.95
30618;BME280;17384;51.214;9.202;2023-04-08T08:49:09;99403.91;;;5.41;86.64
30618;BME280;17384;51.214;9.202;2023-04-08T08:51:36;99392.78;;;5.53;85.53
30618;BME280;17384;51.214;9.202;2023-04-08T08:54:03;99406.75;;;5.64;85.15
30618;BME280;17384;51.214;9.202;2023-04-08T08:56:28;99406.91;;;5.79;85.09
30618;BME280;17384;51.214;9.202;2023-04-08T08:58:54;99406.22;;;5.77;84.10
30618;BME280;17384;51.214;9.202;2023-04-08T09:01:37;99415.13;;;5.86;83.54
30618;BME280;17384;51.214;9.202;2023-04-08T09:06:36;99416.00;;;5.94;83.50
30618;BME280;17384;51.214;9.202;2023-04-08T09:09:03;99415.69;;;5.89;83.93
30618;BME280;17384;51.214;9.202;2023-04-08T09:11:44;99420.69;;;5.84;83.64
30618;BME280;17384;51.214;9.202;2023-04-08T09:14:22;99424.25;;;6.01;83.20
30618;BME280;17384;51.214;9.202;2023-04-08T09:16:48;99422.75;;;5.90;83.32
30618;BME280;17384;51.214;9.202;2023-04-08T09:19:14;99426.06;;;6.08;83.09
30618;BME280;17384;51.214;9.202;2023-04-08T09:21:39;99436.50;;;6.03;82.69
30618;BME280;17384;51.214;9.202;2023-04-08T09:24:06;99440.75;;;5.90;83.54
30618;BME280;17384;51.214;9.202;2023-04-08T09:26:32;99441.25;;;6.01;82.55
30618;BME280;17384;51.214;9.202;2023-04-08T09:31:25;99456.06;;;5.89;82.88
30618;BME280;17384;51.214;9.202;2023-04-08T09:33:54;99452.69;;;5.95;82.68
30618;BME280;17384;51.214;9.202;2023-04-08T09:36:20;99444.97;;;5.92;83.42
30618;BME280;17384;51.214;9.202;2023-04-08T09:38:46;99456.72;;;6.07;82.58
30618;BME280;17384;51.214;9.202;2023-04-08T09:41:13;99470.16;;;6.16;82.33
30618;BME280;17384;51.214;9.202;2023-04-08T09:43:46;99463.28;;;6.13;82.05
30618;BME280;17384;51.214;9.202;2023-04-08T09:46:18;99452.19;;;5.92;83.01
30618;BME280;17384;51.214;9.202;2023-04-08T09:48:55;99455.22;;;5.97;82.92
30618;BME280;17384;51.214;9.202;2023-04-08T09:51:23;99446.59;;;6.09;82.12
30618;BME280;17384;51.214;9.202;2023-04-08T09:53:55;99447.78;;;6.15;81.70
30618;BME280;17384;51.214;9.202;2023-04-08T09:56:26;99447.16;;;5.97;82.80
30618;BME280;17384;51.214;9.202;2023-04-08T09:58:58;99452.88;;;5.94;83.47
30618;BME280;17384;51.214;9.202;2023-04-08T10:01:37;99465.66;;;6.00;83.65
30618;BME280;17384;51.214;9.202;2023-04-08T10:04:09;99454.81;;;6.32;82.51
30618;BME280;17384;51.214;9.202;2023-04-08T10:06:37;99451.59;;;6.45;81.98
30618;BME280;17384;51.214;9.202;2023-04-08T10:09:03;99451.69;;;6.60;81.72
30618;BME280;17384;51.214;9.202;2023-04-08T10:11:30;99450.94;;;6.82;80.55
30618;BME280;17384;51.214;9.202;2023-04-08T10:13:56;99463.25;;;6.76;81.07
30618;BME280;17384;51.214;9.202;2023-04-08T10:16:23;99455.59;;;6.88;80.18
30618;BME280;17384;51.214;9.202;2023-04-08T10:18:52;99470.25;;;6.55;81.38
30618;BME280;17384;51.214;9.202;2023-04-08T10:21:39;99471.34;;;6.76;81.51
30618;BME280;17384;51.214;9.202;2023-04-08T10:24:12;99474.09;;;6.99;80.47
30618;BME280;17384;51.214;9.202;2023-04-08T10:26:41;99468.44;;;6.86;80.23
30618;BME280;17384;51.214;9.202;2023-04-08T10:31:45;99474.75;;;7.09;80.25
30618;BME280;17384;51.214;9.202;2023-04-08T10:34:21;99467.84;;;7.38;79.19
30618;BME280;17384;51.214;9.202;2023-04-08T10:36:49;99470.44;;;7.23;78.96
30618;BME280;17384;51.214;9.202;2023-04-08T10:39:15;99460.03;;;6.81;81.05
30618;BME280;17384;51.214;9.202;2023-04-08T10:41:47;99462.47;;;6.99;80.05
30618;BME280;17384;51.214;9.202;2023-04-08T10:44:24;99468.63;;;7.16;79.71
30618;BME280;17384;51.214;9.202;2023-04-08T10:46:51;99466.84;;;7.31;79.05
30618;BME280;17384;51.214;9.202;2023-04-08T10:49:17;99457.34;;;7.12;79.20
30618;BME280;17384;51.214;9.202;2023-04-08T10:51:43;99454.19;;;7.08;80.37
30618;BME280;17384;51.214;9.202;2023-04-08T10:54:12;99451.59;;;7.15;80.19
30618;BME280;17384;51.214;9.202;2023-04-08T10:56:48;99458.19;;;7.12;80.08
30618;BME280;17384;51.214;9.202;2023-04-08T10:59:26;99466.00;;;7.07;80.20
30618;BME280;17384;51.214;9.202;2023-04-08T11:01:52;99459.13;;;6.97;80.13
30618;BME280;17384;51.214;9.202;2023-04-08T11:04:20;99463.13;;;7.09;80.27
30618;BME280;17384;51.214;9.202;2023-04-08T11:06:48;99454.25;;;7.23;79.54
30618;BME280;17384;51.214;9.202;2023-04-08T11:09:14;99455.19;;;7.07;79.32
30618;BME280;17384;51.214;9.202;2023-04-08T11:11:41;99467.56;;;7.25;79.19
30618;BME280;17384;51.214;9.202;2023-04-08T11:14:07;99463.50;;;7.29;78.82
30618;BME280;17384;51.214;9.202;2023-04-08T11:16:34;99472.44;;;7.29;79.29
30618;BME280;17384;51.214;9.202;2023-04-08T11:19:02;99460.88;;;7.12;79.62
30618;BME280;17384;51.214;9.202;2023-04-08T11:21:30;99468.72;;;7.30;79.14
30618;BME280;17384;51.214;9.202;2023-04-08T11:23:55;99475.38;;;7.42;79.14
30618;BME280;17384;51.214;9.202;2023-04-08T11:26:22;99485.03;;;7.37;78.69
30618;BME280;17384;51.214;9.202;2023-04-08T11:28:47;99477.50;;;7.24;78.09
30618;BME280;17384;51.214;9.202;2023-04-08T11:31:15;99478.84;;;7.28;78.64
30618;BME280;17384;51.214;9.202;2023-04-08T11:33:47;99488.25;;;7.01;80.51
30618;BME280;17384;51.214;9.202;2023-04-08T11:36:14;99488.00;;;7.19;80.24
30618;BME280;17384;51.214;9.202;2023-04-08T11:38:41;99488.25;;;7.01;79.72
30618;BME280;17384;51.214;9.202;2023-04-08T11:41:07;99483.53;;;7.03;79.97
30618;BME280;17384;51.214;9.202;2023-04-08T11:43:33;99491.97;;;7.00;80.55
30618;BME280;17384;51.214;9.202;2023-04-08T11:46:10;99488.06;;;7.11;79.61
30618;BME280;17384;51.214;9.202;2023-04-08T11:48:37;99485.78;;;7.23;79.28
30618;BME280;17384;51.214;9.202;2023-04-08T11:51:06;99482.69;;;7.34;79.10
30618;BME280;17384;51.214;9.202;2023-04-08T11:53:36;99484.09;;;7.22;79.28
30618;BME280;17384;51.214;9.202;2023-04-08T11:56:20;99480.19;;;7.32;80.12
30618;BME280;17384;51.214;9.202;2023-04-08T11:58:46;99476.81;;;7.53;79.30
30618;BME280;17384;51.214;9.202;2023-04-08T12:01:12;99488.50;;;7.68;78.90
30618;BME280;17384;51.214;9.202;2023-04-08T12:03:38;99476.50;;;7.71;77.96
30618;BME280;17384;51.214;9.202;2023-04-08T12:06:03;99488.97;;;7.95;77.84
30618;BME280;17384;51.214;9.202;2023-04-08T12:08:33;99490.41;;;8.05;76.71
30618;BME280;17384;51.214;9.202;2023-04-08T12:10:59;99486.88;;;8.05;76.11
30618;BME280;17384;51.214;9.202;2023-04-08T12:13:24;99483.44;;;8.11;75.75
30618;BME280;17384;51.214;9.202;2023-04-08T12:15:50;99479.88;;;8.33;74.99
30618;BME280;17384;51.214;9.202;2023-04-08T12:18:15;99470.97;;;8.47;74.78
30618;BME280;17384;51.214;9.202;2023-04-08T12:20:41;99458.16;;;8.56;74.68
30618;BME280;17384;51.214;9.202;2023-04-08T12:23:06;99469.00;;;9.22;74.36
30618;BME280;17384;51.214;9.202;2023-04-08T12:25:32;99478.09;;;9.50;72.80
30618;BME280;17384;51.214;9.202;2023-04-08T12:27:57;99467.50;;;9.76;71.59
30618;BME280;17384;51.214;9.202;2023-04-08T12:30:23;99459.69;;;9.67;71.21
30618;BME280;17384;51.214;9.202;2023-04-08T12:32:48;99477.81;;;9.66;71.04
30618;BME280;17384;51.214;9.202;2023-04-08T12:35:13;99464.25;;;10.09;70.97
30618;BME280;17384;51.214;9.202;2023-04-08T12:37:39;99469.53;;;10.38;70.52
30618;BME280;17384;51.214;9.202;2023-04-08T12:40:05;99463.75;;;10.20;69.82
30618;BME280;17384;51.214;9.202;2023-04-08T12:42:31;99463.34;;;10.23;70.11
30618;BME280;17384;51.214;9.202;2023-04-08T12:44:57;99470.06;;;10.06;70.63
30618;BME280;17384;51.214;9.202;2023-04-08T12:47:22;99470.88;;;9.78;70.37
30618;BME280;17384;51.214;9.202;2023-04-08T12:49:48;99470.59;;;9.16;72.57
30618;BME280;17384;51.214;9.202;2023-04-08T12:52:13;99474.44;;;9.22;72.87
30618;BME280;17384;51.214;9.202;2023-04-08T12:54:39;99484.03;;;9.24;72.82
30618;BME280;17384;51.214;9.202;2023-04-08T12:57:04;99480.03;;;9.05;73.53
30618;BME280;17384;51.214;9.202;2023-04-08T12:59:30;99479.28;;;9.11;73.67
30618;BME280;17384;51.214;9.202;2023-04-08T13:01:57;99472.19;;;9.10;73.72
30618;BME280;17384;51.214;9.202;2023-04-08T13:04:23;99472.09;;;9.04;74.40
30618;BME280;17384;51.214;9.202;2023-04-08T13:06:48;99475.03;;;9.02;74.66
30618;BME280;17384;51.214;9.202;2023-04-08T13:09:14;99474.47;;;8.92;74.37
30618;BME280;17384;51.214;9.202;2023-04-08T13:11:39;99477.47;;;8.97;75.64
30618;BME280;17384;51.214;9.202;2023-04-08T13:14:05;99476.09;;;9.23;74.19
30618;BME280;17384;51.214;9.202;2023-04-08T13:16:30;99486.97;;;9.44;73.81